createdAt,value
2019-05-03T00:02:26.722Z,11.99
2019-05-03T00:04:57.635Z,12.01
2019-05-03T00:07:25.154Z,12.18
2019-05-03T00:09:52.626Z,12.25
2019-05-03T00:12:21.983Z,12.10
2019-05-03T00:14:47.586Z,12.07
2019-05-03T00:17:15.045Z,12.11
2019-05-03T00:19:42.501Z,12.16
2019-05-03T00:22:12.219Z,12.17
2019-05-03T00:24:37.596Z,12.01
2019-05-03T00:27:05.063Z,11.92
2019-05-03T00:29:32.639Z,12.02
2019-05-03T00:32:01.772Z,12.00
2019-05-03T00:34:27.441Z,11.94
2019-05-03T00:36:55.435Z,11.72
2019-05-03T00:39:24.341Z,11.74
2019-05-03T00:41:52.078Z,11.87
2019-05-03T00:44:19.323Z,11.97
2019-05-03T00:46:47.451Z,12.07
2019-05-03T00:49:14.900Z,12.08
2019-05-03T00:51:42.453Z,12.23
2019-05-03T00:54:09.826Z,12.28
2019-05-03T00:56:37.271Z,12.24
2019-05-03T00:59:04.751Z,12.20
2019-05-03T01:01:32.237Z,12.26
2019-05-03T01:04:01.651Z,12.31
2019-05-03T01:06:27.203Z,12.30
2019-05-03T01:08:54.676Z,12.30
2019-05-03T01:11:22.425Z,12.43
2019-05-03T01:13:51.985Z,12.38
2019-05-03T01:16:17.154Z,12.36
2019-05-03T01:18:44.590Z,12.33
2019-05-03T01:21:12.045Z,12.32
2019-05-03T01:23:39.538Z,12.21
2019-05-03T01:26:07.022Z,12.25
2019-05-03T01:28:34.505Z,12.21
2019-05-03T01:31:02.564Z,12.05
2019-05-03T01:33:29.569Z,12.12
2019-05-03T01:35:57.383Z,12.20
2019-05-03T01:38:24.952Z,12.12
2019-05-03T01:40:52.596Z,12.16
2019-05-03T01:43:22.142Z,12.21
2019-05-03T01:45:47.756Z,12.24
2019-05-03T01:48:17.174Z,12.27
2019-05-03T01:53:37.077Z,12.61
2019-05-03T01:56:04.585Z,12.56
2019-05-03T01:58:32.455Z,12.52
2019-05-03T02:00:59.568Z,12.47
2019-05-03T02:03:32.506Z,12.46
2019-05-03T02:05:59.390Z,12.55
2019-05-03T02:08:26.864Z,12.57
2019-05-03T02:10:54.312Z,12.58
2019-05-03T02:13:22.966Z,12.57
2019-05-03T02:15:49.271Z,12.54
2019-05-03T02:18:16.714Z,12.54
2019-05-03T02:20:44.190Z,12.52
2019-05-03T02:23:11.994Z,12.48
2019-05-03T02:25:39.163Z,12.51
2019-05-03T02:28:06.596Z,12.49
2019-05-03T02:30:34.440Z,12.48
2019-05-03T02:33:04.023Z,12.46
2019-05-03T02:35:29.420Z,12.46
2019-05-03T02:37:56.882Z,12.40
2019-05-03T02:40:24.810Z,12.40
2019-05-03T02:42:57.320Z,12.40
2019-05-03T02:45:25.905Z,12.42
2019-05-03T02:47:55.409Z,12.41
2019-05-03T02:50:20.519Z,12.41
2019-05-03T02:52:47.977Z,12.41
2019-05-03T02:55:16.254Z,12.35
2019-05-03T02:57:46.295Z,12.29
2019-05-03T03:00:11.328Z,12.29
2019-05-03T03:02:38.787Z,12.29
2019-05-03T03:05:06.241Z,12.36
2019-05-03T03:07:33.699Z,12.36
2019-05-03T03:10:01.147Z,12.39
2019-05-03T03:12:28.645Z,12.33
2019-05-03T03:14:56.158Z,12.35
2019-05-03T03:17:25.420Z,12.40
2019-05-03T03:19:51.128Z,12.35
2019-05-03T03:22:18.749Z,12.33
2019-05-03T03:24:46.208Z,12.35
2019-05-03T03:27:16.087Z,12.31
2019-05-03T03:29:41.153Z,12.34
2019-05-03T03:32:17.638Z,12.30
2019-05-03T03:34:53.343Z,12.24
2019-05-03T03:37:10.799Z,12.15
2019-05-03T03:39:37.535Z,11.98
2019-05-03T03:42:05.255Z,11.87
2019-05-03T03:44:32.487Z,11.89
2019-05-03T03:46:59.933Z,11.98
2019-05-03T03:49:27.505Z,12.09
2019-05-03T03:51:56.340Z,12.17
2019-05-03T03:54:22.535Z,12.24
2019-05-03T03:56:59.287Z,12.32
2019-05-03T03:59:20.331Z,12.36
2019-05-03T04:01:47.806Z,12.36
2019-05-03T04:04:16.098Z,12.36
2019-05-03T04:06:42.812Z,12.31
2019-05-03T04:09:10.459Z,12.34
2019-05-03T04:11:37.923Z,12.38
2019-05-03T04:14:05.536Z,12.40
2019-05-03T04:16:32.881Z,12.38
2019-05-03T04:19:00.344Z,12.39
2019-05-03T04:21:27.829Z,12.40
2019-05-03T04:23:55.786Z,12.41
2019-05-03T04:26:27.449Z,12.40
2019-05-03T04:28:50.296Z,12.41
2019-05-03T04:31:17.813Z,12.47
2019-05-03T04:33:45.284Z,12.46
2019-05-03T04:36:12.733Z,12.42
2019-05-03T04:38:40.357Z,12.40
2019-05-03T04:41:07.834Z,12.42
2019-05-03T04:43:35.719Z,12.40
2019-05-03T04:46:20.527Z,12.37
2019-05-03T04:48:48.010Z,12.35
2019-05-03T04:51:16.658Z,12.30
2019-05-03T04:53:45.459Z,12.31
2019-05-03T04:56:11.375Z,12.30
2019-05-03T04:58:38.820Z,12.34
2019-05-03T05:01:06.534Z,12.46
2019-05-03T05:03:36.209Z,12.57
2019-05-03T05:06:01.555Z,12.59
2019-05-03T05:08:29.105Z,12.66
2019-05-03T05:10:56.560Z,12.67
2019-05-03T05:13:25.010Z,12.68
2019-05-03T05:15:51.528Z,12.65
2019-05-03T05:18:26.291Z,12.68
2019-05-03T05:20:52.301Z,12.81
2019-05-03T05:23:19.857Z,12.85
2019-05-03T05:25:51.035Z,12.91
2019-05-03T05:28:19.337Z,12.97
2019-05-03T05:30:46.788Z,12.95
2019-05-03T05:33:19.834Z,12.89
2019-05-03T05:35:47.288Z,12.88
2019-05-03T05:38:15.050Z,12.85
2019-05-03T05:40:42.347Z,12.76
2019-05-03T05:43:09.790Z,12.71
2019-05-03T05:45:37.250Z,12.72
2019-05-03T05:48:05.281Z,12.76
2019-05-03T05:50:34.501Z,12.92
2019-05-03T05:53:00.368Z,12.98
2019-05-03T05:55:34.488Z,13.03
2019-05-03T05:58:12.800Z,13.01
2019-05-03T06:00:55.256Z,12.90
2019-05-03T06:03:22.666Z,12.84
2019-05-03T06:05:50.149Z,12.88
2019-05-03T06:08:20.427Z,12.95
2019-05-03T06:10:51.410Z,12.81
2019-05-03T06:13:19.040Z,12.75
2019-05-03T06:15:48.986Z,12.60
2019-05-03T06:18:20.459Z,12.63
2019-05-03T06:20:57.840Z,12.82
2019-05-03T06:23:30.328Z,12.90
2019-05-03T06:25:57.976Z,12.93
2019-05-03T06:28:26.789Z,12.99
2019-05-03T06:31:14.893Z,12.97
2019-05-03T06:33:45.148Z,12.98
2019-05-03T06:36:12.642Z,12.87
2019-05-03T06:38:42.260Z,12.97
2019-05-03T06:41:07.966Z,12.81
2019-05-03T06:43:39.623Z,12.80
2019-05-03T06:46:05.176Z,12.93
2019-05-03T06:48:31.998Z,12.98
2019-05-03T06:51:00.334Z,13.03
2019-05-03T06:53:25.832Z,13.13
2019-05-03T06:55:55.257Z,13.34
2019-05-03T06:58:31.218Z,13.39
2019-05-03T07:00:53.041Z,13.56
2019-05-03T07:03:22.481Z,13.68
2019-05-03T07:09:00.930Z,14.26
2019-05-03T07:11:28.421Z,14.34
2019-05-03T07:13:55.889Z,14.35
2019-05-03T07:16:25.273Z,14.34
2019-05-03T07:18:50.910Z,14.44
2019-05-03T07:21:18.377Z,14.53
2019-05-03T07:23:45.978Z,14.62
2019-05-03T07:26:15.069Z,14.76
2019-05-03T07:28:46.836Z,14.84
2019-05-03T07:31:08.618Z,14.94
2019-05-03T07:33:36.274Z,15.06
2019-05-03T07:36:05.318Z,15.11
2019-05-03T07:38:31.257Z,15.00
2019-05-03T07:40:58.708Z,15.01
2019-05-03T07:43:26.722Z,14.97
2019-05-03T07:45:55.218Z,14.96
2019-05-03T07:48:21.943Z,14.95
2019-05-03T07:50:49.431Z,15.06
2019-05-03T07:53:16.892Z,15.19
2019-05-03T07:55:50.020Z,15.16
2019-05-03T07:58:17.831Z,15.15
2019-05-03T08:00:45.304Z,15.28
2019-05-03T08:03:12.823Z,15.31
2019-05-03T08:05:40.274Z,15.32
2019-05-03T08:08:07.732Z,15.29
2019-05-03T08:10:35.394Z,15.27
2019-05-03T08:13:04.704Z,15.25
2019-05-03T08:15:30.878Z,15.09
2019-05-03T08:17:58.384Z,14.90
2019-05-03T08:20:25.879Z,14.92
2019-05-03T08:22:54.692Z,15.03
2019-05-03T08:25:20.875Z,15.22
2019-05-03T08:27:48.347Z,15.26
2019-05-03T08:30:15.831Z,15.29
2019-05-03T08:32:49.019Z,15.46
2019-05-03T08:35:20.157Z,15.46
2019-05-03T08:38:02.509Z,15.39
2019-05-03T08:40:29.999Z,15.55
2019-05-03T08:42:57.454Z,15.78
2019-05-03T08:45:25.588Z,16.01
2019-05-03T08:47:52.444Z,16.17
2019-05-03T08:50:21.538Z,16.15
2019-05-03T08:52:47.432Z,16.22
2019-05-03T08:55:15.903Z,16.21
2019-05-03T08:57:44.609Z,16.17
2019-05-03T09:00:14.473Z,15.82
2019-05-03T09:02:41.296Z,15.46
2019-05-03T09:05:08.984Z,15.47
2019-05-03T09:07:36.490Z,15.51
2019-05-03T09:10:12.443Z,15.53
2019-05-03T09:12:42.602Z,15.68
2019-05-03T09:15:10.069Z,15.77
2019-05-03T09:17:37.512Z,15.93
2019-05-03T09:20:05.259Z,16.00
2019-05-03T09:22:34.760Z,15.87
2019-05-03T09:24:59.950Z,16.09
2019-05-03T09:27:27.404Z,16.42
2019-05-03T09:29:55.850Z,16.59
2019-05-03T09:32:22.533Z,16.46
2019-05-03T09:34:49.980Z,16.42
2019-05-03T09:37:17.429Z,16.59
2019-05-03T09:39:44.946Z,16.96
2019-05-03T09:42:12.379Z,17.08
2019-05-03T09:44:39.837Z,16.91
2019-05-03T09:47:07.336Z,16.63
2019-05-03T09:49:34.942Z,16.46
2019-05-03T09:52:03.153Z,16.53
2019-05-03T09:54:34.768Z,16.38
2019-05-03T09:57:00.366Z,16.12
2019-05-03T09:59:27.922Z,15.98
2019-05-03T10:01:55.440Z,15.98
2019-05-03T10:04:22.913Z,15.98
2019-05-03T10:06:50.372Z,16.11
2019-05-03T10:09:17.983Z,16.60
2019-05-03T10:11:46.121Z,17.10
2019-05-03T10:14:15.328Z,17.56
2019-05-03T10:16:40.647Z,17.88
2019-05-03T10:19:08.161Z,17.60
2019-05-03T10:21:35.676Z,17.27
2019-05-03T10:24:03.174Z,17.52
2019-05-03T10:26:30.616Z,18.08
2019-05-03T10:28:58.062Z,18.35
2019-05-03T10:31:25.705Z,18.49
2019-05-03T10:33:55.741Z,18.82
2019-05-03T10:36:24.932Z,18.45
2019-05-03T10:38:51.010Z,18.22
2019-05-03T10:41:18.448Z,18.11
2019-05-03T10:43:45.922Z,18.11
2019-05-03T10:46:15.941Z,17.89
2019-05-03T10:48:42.011Z,17.59
2019-05-03T10:51:09.620Z,17.87
2019-05-03T10:53:38.104Z,17.99
2019-05-03T10:56:13.449Z,17.88
2019-05-03T10:58:38.811Z,17.72
2019-05-03T11:01:06.269Z,17.68
2019-05-03T11:03:34.329Z,17.88
2019-05-03T11:06:01.567Z,18.25
2019-05-03T11:08:29.014Z,18.44
2019-05-03T11:10:56.522Z,18.79
2019-05-03T11:13:26.302Z,19.35
2019-05-03T11:15:51.590Z,19.88
2019-05-03T11:18:19.074Z,20.34
2019-05-03T11:20:47.249Z,20.28
2019-05-03T11:23:14.651Z,19.85
2019-05-03T11:25:41.840Z,19.07
2019-05-03T11:28:11.891Z,18.80
2019-05-03T11:30:51.637Z,18.90
2019-05-03T11:33:16.858Z,19.00
2019-05-03T11:35:59.227Z,19.67
2019-05-03T11:38:26.689Z,20.62
2019-05-03T11:40:56.022Z,21.30
2019-05-03T11:43:21.234Z,21.58
2019-05-03T11:45:48.245Z,21.15
2019-05-03T11:48:15.246Z,20.83
2019-05-03T11:50:42.242Z,20.99
2019-05-03T11:53:09.714Z,21.03
2019-05-03T11:55:37.170Z,20.69
2019-05-03T11:58:05.619Z,20.63
2019-05-03T12:00:32.189Z,20.58
2019-05-03T12:03:10.358Z,20.77
2019-05-03T12:05:37.868Z,20.94
2019-05-03T12:08:05.534Z,21.08
2019-05-03T12:10:49.890Z,21.32
2019-05-03T12:13:05.066Z,21.59
2019-05-03T12:15:32.170Z,21.73
2019-05-03T12:18:05.573Z,21.63
2019-05-03T12:20:32.044Z,21.46
2019-05-03T12:22:58.769Z,21.02
2019-05-03T12:25:26.399Z,20.68
2019-05-03T12:27:53.221Z,20.64
2019-05-03T12:30:20.856Z,21.11
2019-05-03T12:32:48.309Z,21.73
2019-05-03T12:35:15.771Z,22.23
2019-05-03T12:37:42.782Z,22.54
2019-05-03T12:40:09.769Z,22.73
2019-05-03T12:42:36.874Z,22.89
2019-05-03T12:45:04.555Z,23.15
2019-05-03T12:47:30.956Z,23.19
2019-05-03T12:49:57.971Z,23.32
2019-05-03T12:52:26.760Z,23.51
2019-05-03T12:54:52.003Z,23.52
2019-05-03T12:57:19.343Z,23.22
2019-05-03T12:59:46.366Z,22.80
2019-05-03T13:02:26.167Z,22.78
2019-05-03T13:04:55.270Z,22.86
2019-05-03T13:07:34.688Z,22.92
2019-05-03T13:10:00.001Z,23.18
2019-05-03T13:12:27.020Z,23.81
2019-05-03T13:14:54.021Z,24.32
2019-05-03T13:22:01.271Z,23.80
2019-05-03T13:24:28.275Z,22.87
2019-05-03T13:26:55.297Z,23.09
2019-05-03T13:29:22.285Z,22.89
2019-05-03T13:32:00.694Z,23.23
2019-05-03T13:34:16.297Z,23.54
2019-05-03T13:36:45.485Z,23.42
2019-05-03T13:39:14.188Z,23.91
2019-05-03T13:41:37.410Z,24.03
2019-05-03T13:44:05.222Z,23.86
2019-05-03T13:46:31.686Z,22.89
2019-05-03T13:48:58.697Z,23.04
2019-05-03T13:51:25.692Z,23.36
2019-05-03T13:53:54.904Z,23.91
2019-05-03T13:56:19.754Z,23.82
2019-05-03T13:58:46.855Z,23.12
2019-05-03T14:01:14.743Z,22.78
2019-05-03T14:03:41.218Z,22.28
2019-05-03T14:06:09.380Z,22.31
2019-05-03T14:08:35.530Z,21.96
2019-05-03T14:11:02.506Z,21.82
2019-05-03T14:13:29.999Z,21.91
2019-05-03T14:15:57.034Z,22.25
2019-05-03T14:18:25.583Z,22.64
2019-05-03T14:20:55.076Z,22.80
2019-05-03T14:23:21.925Z,22.72
2019-05-03T14:25:49.385Z,22.27
2019-05-03T14:28:16.842Z,21.81
2019-05-03T14:30:45.431Z,21.52
2019-05-03T14:33:11.802Z,21.51
2019-05-03T14:35:39.371Z,21.50
2019-05-03T14:38:06.390Z,21.59
2019-05-03T14:40:33.860Z,21.40
2019-05-03T14:43:01.327Z,21.48
2019-05-03T14:45:28.779Z,21.72
2019-05-03T14:47:57.693Z,22.00
2019-05-03T14:50:25.466Z,22.41
2019-05-03T14:52:51.904Z,22.34
2019-05-03T14:55:25.090Z,22.08
2019-05-03T14:57:52.012Z,21.99
2019-05-03T15:00:25.121Z,22.00
2019-05-03T15:02:55.377Z,21.37
2019-05-03T15:05:20.449Z,20.72
2019-05-03T15:07:47.996Z,20.23
2019-05-03T15:10:15.452Z,19.96
2019-05-03T15:12:45.013Z,19.98
2019-05-03T15:15:10.459Z,20.18
2019-05-03T15:17:37.932Z,20.50
2019-05-03T15:20:05.435Z,20.63
2019-05-03T15:22:34.589Z,20.77
2019-05-03T15:25:00.067Z,20.86
2019-05-03T15:27:27.525Z,21.05
2019-05-03T15:29:55.519Z,21.36
2019-05-03T15:32:22.184Z,21.40
2019-05-03T15:34:49.665Z,21.21
2019-05-03T15:37:17.249Z,21.07
2019-05-03T15:39:45.197Z,20.85
2019-05-03T15:42:14.508Z,20.63
2019-05-03T15:44:45.481Z,20.24
2019-05-03T15:47:18.804Z,19.77
2019-05-03T15:49:46.329Z,19.66
2019-05-03T15:52:15.263Z,19.89
2019-05-03T15:54:41.301Z,19.58
2019-05-03T15:57:08.867Z,19.30
2019-05-03T15:59:36.375Z,19.22
2019-05-03T16:02:04.683Z,19.01
2019-05-03T16:04:32.823Z,18.80
2019-05-03T16:07:00.318Z,18.87
2019-05-03T16:09:27.848Z,18.78
2019-05-03T16:11:55.617Z,18.55
2019-05-03T16:14:24.295Z,18.34
2019-05-03T16:16:50.379Z,18.37
2019-05-03T16:19:18.003Z,18.26
2019-05-03T16:21:45.500Z,18.20
2019-05-03T16:24:12.994Z,18.23
2019-05-03T16:26:46.995Z,17.97
2019-05-03T16:29:15.033Z,17.89
2019-05-03T16:31:40.927Z,17.66
2019-05-03T16:34:08.435Z,17.50
2019-05-03T16:36:36.915Z,17.43
2019-05-03T16:39:04.756Z,17.38
2019-05-03T16:41:30.899Z,17.40
2019-05-03T16:43:58.375Z,17.20
2019-05-03T16:46:26.586Z,16.91
2019-05-03T16:48:54.035Z,16.77
2019-05-03T16:51:21.477Z,16.68
2019-05-03T16:53:49.057Z,16.66
2019-05-03T16:56:17.114Z,16.63
2019-05-03T16:58:44.712Z,16.47
2019-05-03T17:01:13.578Z,16.30
2019-05-03T17:03:41.382Z,16.30
2019-05-03T17:06:07.594Z,16.37
2019-05-03T17:11:27.296Z,16.62
2019-05-03T17:13:55.062Z,16.51
2019-05-03T17:16:22.266Z,16.23
2019-05-03T17:18:49.709Z,16.16
2019-05-03T17:21:17.157Z,16.19
2019-05-03T17:23:44.711Z,16.28
2019-05-03T17:26:12.327Z,16.35
2019-05-03T17:28:39.784Z,16.36
2019-05-03T17:31:07.270Z,16.26
2019-05-03T17:33:34.960Z,16.02
2019-05-03T17:36:02.366Z,15.95
2019-05-03T17:38:29.938Z,15.91
2019-05-03T17:41:08.984Z,15.91
2019-05-03T17:43:38.870Z,15.87
2019-05-03T17:46:06.329Z,15.79
2019-05-03T17:48:34.867Z,15.71
2019-05-03T17:51:01.406Z,15.72
2019-05-03T17:56:24.433Z,16.00
2019-05-03T17:58:55.020Z,15.95
2019-05-03T18:01:21.009Z,15.88
2019-05-03T18:04:04.004Z,15.85
2019-05-03T18:09:16.167Z,16.12
2019-05-03T18:14:35.937Z,16.11
2019-05-03T18:17:05.533Z,15.99
2019-05-03T18:19:30.999Z,15.96
2019-05-03T18:21:58.459Z,15.85
2019-05-03T18:24:25.908Z,15.78
2019-05-03T18:26:53.386Z,15.70
2019-05-03T18:29:20.830Z,15.63
2019-05-03T18:31:48.304Z,15.57
2019-05-03T18:34:20.027Z,15.51
2019-05-03T18:36:45.035Z,15.49
2019-05-03T18:39:10.912Z,15.52
2019-05-03T18:41:38.468Z,15.48
2019-05-03T18:44:08.928Z,15.46
2019-05-03T18:46:51.381Z,15.40
2019-05-03T18:49:18.881Z,15.38
2019-05-03T18:51:46.329Z,15.44
2019-05-03T18:54:15.504Z,15.37
2019-05-03T18:56:41.427Z,15.31
2019-05-03T18:59:08.905Z,15.32
2019-05-03T19:01:36.404Z,15.21
2019-05-03T19:04:06.760Z,15.19
2019-05-03T19:06:34.806Z,15.12
2019-05-03T19:11:58.647Z,15.32
2019-05-03T19:14:26.124Z,15.26
2019-05-03T19:16:54.552Z,15.15
2019-05-03T19:19:21.537Z,15.08
2019-05-03T19:21:49.023Z,15.06
2019-05-03T19:24:16.518Z,15.07
2019-05-03T19:26:45.081Z,15.07
2019-05-03T19:29:11.593Z,15.05
2019-05-03T19:31:39.078Z,15.06
2019-05-03T19:34:06.564Z,15.06
2019-05-03T19:36:34.827Z,15.06
2019-05-03T19:39:01.605Z,15.03
2019-05-03T19:41:29.051Z,15.00
2019-05-03T19:43:56.502Z,14.99
2019-05-03T19:46:24.859Z,14.98
2019-05-03T19:48:51.467Z,14.97
2019-05-03T19:51:18.953Z,14.95
2019-05-03T19:53:48.265Z,14.90
2019-05-03T19:56:15.730Z,14.84
2019-05-03T19:58:44.192Z,14.80
2019-05-03T20:04:08.771Z,14.88
2019-05-03T20:06:39.169Z,14.77
2019-05-03T20:09:10.386Z,14.64
2019-05-03T20:11:38.027Z,14.53
2019-05-03T20:14:05.527Z,14.48
2019-05-03T20:16:34.682Z,14.35
2019-05-03T20:19:00.490Z,14.38
2019-05-03T20:21:27.940Z,14.32
2019-05-03T20:23:55.622Z,14.33
2019-05-03T20:26:25.160Z,14.36
2019-05-03T20:28:50.495Z,14.41
2019-05-03T20:31:17.981Z,14.46
2019-05-03T20:33:45.833Z,14.38
2019-05-03T20:36:12.927Z,14.38
2019-05-03T20:38:40.398Z,14.40
2019-05-03T20:41:07.989Z,14.40
2019-05-03T20:46:35.949Z,14.74
2019-05-03T20:49:04.415Z,14.68
2019-05-03T20:51:31.034Z,14.61
2019-05-03T20:53:58.558Z,14.55
2019-05-03T20:56:26.033Z,14.50
2019-05-03T20:58:55.001Z,14.38
2019-05-03T21:01:21.025Z,14.20
2019-05-03T21:03:48.491Z,14.06
2019-05-03T21:06:15.969Z,14.00
2019-05-03T21:08:52.952Z,13.91
2019-05-03T21:11:11.003Z,13.83
2019-05-03T21:13:42.038Z,13.82
2019-05-03T21:16:06.895Z,13.81
2019-05-03T21:18:34.546Z,13.78
2019-05-03T21:21:06.377Z,13.78
2019-05-03T21:23:35.707Z,13.85
2019-05-03T21:26:12.084Z,13.84
2019-05-03T21:28:31.273Z,13.83
2019-05-03T21:30:58.748Z,13.76
2019-05-03T21:33:26.222Z,13.67
2019-05-03T21:35:55.564Z,13.67
2019-05-03T21:38:21.254Z,13.62
2019-05-03T21:40:48.744Z,13.64
2019-05-03T21:43:16.183Z,13.60
2019-05-03T21:45:45.363Z,13.52
2019-05-03T21:48:14.464Z,13.45
2019-05-03T21:50:40.101Z,13.45
2019-05-03T21:53:07.559Z,13.44
2019-05-03T21:55:35.491Z,13.40
2019-05-03T21:58:04.243Z,13.34
2019-05-03T22:03:22.418Z,13.61
2019-05-03T22:05:55.087Z,13.55
2019-05-03T22:08:17.409Z,13.52
2019-05-03T22:10:45.126Z,13.46
2019-05-03T22:13:12.459Z,13.46
2019-05-03T22:15:41.596Z,13.53
2019-05-03T22:18:15.222Z,13.60
2019-05-03T22:20:45.373Z,13.61
2019-05-03T22:23:16.791Z,13.61
2019-05-03T22:25:44.282Z,13.60
2019-05-03T22:28:11.878Z,13.64
2019-05-03T22:30:39.321Z,13.63
2019-05-03T22:33:06.766Z,13.63
2019-05-03T22:35:35.300Z,13.55
2019-05-03T22:38:04.039Z,13.46
2019-05-03T22:40:29.203Z,13.42
2019-05-03T22:42:56.684Z,13.38
2019-05-03T22:45:24.295Z,13.41
2019-05-03T22:47:51.834Z,13.43
2019-05-03T22:50:19.290Z,13.44
2019-05-03T22:52:46.823Z,13.41
2019-05-03T22:55:15.292Z,13.36
2019-05-03T22:57:41.812Z,13.32
2019-05-03T23:00:09.272Z,13.30
2019-05-03T23:02:36.780Z,13.31
2019-05-03T23:05:04.682Z,13.34
2019-05-03T23:07:31.723Z,13.29
2019-05-03T23:09:59.200Z,13.15
2019-05-03T23:12:26.702Z,13.10
2019-05-03T23:14:55.125Z,13.06
2019-05-03T23:17:21.663Z,13.10
2019-05-03T23:19:49.138Z,13.13
2019-05-03T23:22:31.114Z,13.12
2019-05-03T23:24:58.686Z,13.06
2019-05-03T23:27:26.131Z,13.03
2019-05-03T23:29:54.510Z,12.98
2019-05-03T23:32:21.124Z,12.95
2019-05-03T23:34:48.587Z,12.90
2019-05-03T23:37:16.168Z,12.88
2019-05-03T23:39:44.602Z,12.89
2019-05-03T23:42:11.212Z,12.88
2019-05-03T23:44:38.662Z,12.78
2019-05-03T23:47:10.110Z,12.59
2019-05-03T23:49:37.628Z,12.30
2019-05-03T23:54:57.245Z,12.35
2019-05-03T23:57:25.150Z,12.28
2019-05-03T23:59:54.335Z,12.12
